Time;durP1;ratioP1;P1;durP2;ratioP2;P2;SDS_P1;SDS_P2;PMS_P1;PMS_P2;Temp;Humidity;BMP_temperature;BMP_pressure;BME280_temperature;BME280_humidity;BME280_pressure;Samples;Min_cycle;Max_cycle;Signal;HPM_P1;HPM_P2
2021/08/12 00:02:21;;;;;;;8.50;7.70;;;18.40;99.90;;;;;;4917191;29;20482;-70
2021/08/12 00:04:47;;;;;;;8.57;7.67;;;18.40;99.90;;;;;;4917656;29;20258;-70
2021/08/12 00:07:13;;;;;;;8.63;7.60;;;18.40;99.90;;;;;;4918535;29;20179;-70
2021/08/12 00:09:39;;;;;;;7.60;6.90;;;18.40;99.90;;;;;;4917494;29;20414;-70
2021/08/12 00:12:05;;;;;;;8.57;7.70;;;18.30;99.90;;;;;;4917088;29;20179;-70
2021/08/12 00:14:30;;;;;;;8.50;7.53;;;18.40;99.90;;;;;;4916703;29;20195;-70
2021/08/12 00:16:56;;;;;;;7.57;6.87;;;18.40;99.90;;;;;;4918522;29;20423;-70
2021/08/12 00:19:21;;;;;;;8.23;7.43;;;18.30;99.90;;;;;;4917083;29;20190;-70
2021/08/12 00:21:48;;;;;;;8.20;7.17;;;18.10;99.90;;;;;;4917940;29;20178;-70
2021/08/12 00:24:14;;;;;;;8.97;7.33;;;18.10;99.90;;;;;;4916710;29;20560;-70
2021/08/12 00:26:41;;;;;;;7.73;7.13;;;18.10;99.90;;;;;;4915138;29;20427;-70
2021/08/12 00:29:07;;;;;;;11.20;8.80;;;18.10;99.90;;;;;;4933690;29;20815;-70
2021/08/12 00:31:33;;;;;;;9.40;7.27;;;18.10;99.90;;;;;;4935831;29;20540;-70
2021/08/12 00:33:59;;;;;;;8.27;7.40;;;18.10;99.90;;;;;;4935710;29;20253;-70
2021/08/12 00:36:24;;;;;;;8.40;7.60;;;18.10;99.90;;;;;;4935678;29;20418;-70
2021/08/12 00:38:50;;;;;;;12.43;7.90;;;18.10;99.90;;;;;;4935265;29;20174;-70
2021/08/12 00:41:16;;;;;;;8.80;8.00;;;18.10;99.90;;;;;;4936447;29;20229;-70
2021/08/12 00:43:41;;;;;;;9.27;8.30;;;18.10;99.90;;;;;;4936038;29;20438;-70
2021/08/12 00:46:07;;;;;;;9.23;7.80;;;18.10;99.90;;;;;;4919138;29;20433;-70
2021/08/12 00:48:32;;;;;;;8.03;7.23;;;18.10;99.90;;;;;;4938451;29;20884;-70
2021/08/12 00:50:58;;;;;;;7.93;7.13;;;18.10;99.90;;;;;;4940262;29;20182;-70
2021/08/12 00:53:24;;;;;;;8.57;7.80;;;18.10;99.90;;;;;;4939812;29;20576;-70
2021/08/12 00:55:50;;;;;;;8.73;7.93;;;18.10;99.90;;;;;;4937107;29;20174;-70
2021/08/12 00:58:15;;;;;;;8.40;7.60;;;18.00;99.90;;;;;;4941695;29;20710;-70
2021/08/12 01:00:43;;;;;;;8.50;7.70;;;18.00;99.90;;;;;;4941933;29;20218;-70
2021/08/12 01:03:10;;;;;;;9.17;8.20;;;17.90;99.90;;;;;;4943720;29;20445;-70
2021/08/12 01:05:42;;;;;;;8.93;8.03;;;17.90;99.90;;;;;;4943370;29;20417;-70
2021/08/12 01:08:19;;;;;;;8.70;7.90;;;17.90;99.90;;;;;;4939216;29;20750;-70
2021/08/12 01:10:56;;;;;;;9.00;7.73;;;17.80;99.90;;;;;;4937434;29;20426;-70
2021/08/12 01:13:29;;;;;;;9.10;8.03;;;17.70;99.90;;;;;;4938748;29;20496;-70
2021/08/12 01:15:59;;;;;;;8.53;7.63;;;17.70;99.90;;;;;;4938622;29;20402;-70
2021/08/12 01:18:43;;;;;;;8.57;7.70;;;17.80;99.90;;;;;;4939199;29;20745;-70
2021/08/12 01:21:28;;;;;;;8.90;8.10;;;17.80;99.90;;;;;;4937317;29;20201;-70
2021/08/12 01:23:58;;;;;;;7.93;7.23;;;17.80;99.90;;;;;;4938622;29;20873;-70
2021/08/12 01:26:27;;;;;;;9.50;8.40;;;17.80;99.90;;;;;;4928614;29;20576;-71
2021/08/12 01:28:55;;;;;;;9.33;8.37;;;17.80;99.90;;;;;;4919972;29;20430;-70
2021/08/12 01:31:26;;;;;;;9.10;8.20;;;17.80;99.90;;;;;;4919994;29;20421;-70
2021/08/12 01:34:10;;;;;;;10.80;8.60;;;17.80;99.90;;;;;;4919459;29;20466;-70
2021/08/12 01:36:40;;;;;;;8.80;7.90;;;17.70;99.90;;;;;;4920686;29;20418;-70
2021/08/12 01:39:07;;;;;;;9.40;8.37;;;17.70;99.90;;;;;;4920381;29;20431;-70
2021/08/12 01:41:34;;;;;;;9.27;7.83;;;17.70;99.90;;;;;;4919552;29;20422;-70
2021/08/12 01:44:01;;;;;;;8.40;7.60;;;17.70;99.90;;;;;;4919836;29;20929;-70
2021/08/12 01:46:28;;;;;;;11.37;8.83;;;17.70;99.90;;;;;;4920324;29;20454;-70
2021/08/12 01:48:54;;;;;;;9.43;8.50;;;17.70;99.90;;;;;;4902399;29;20422;-70
2021/08/12 01:51:25;;;;;;;10.27;8.00;;;17.70;99.90;;;;;;4919595;29;20467;-71
2021/08/12 01:53:52;;;;;;;8.30;7.50;;;17.70;99.90;;;;;;4919078;29;20478;-71
2021/08/12 01:56:19;;;;;;;9.65;8.70;;;17.60;99.90;;;;;;4919327;29;20430;-71
2021/08/12 01:58:46;;;;;;;9.50;7.73;;;17.60;99.90;;;;;;4918801;29;20202;-71
2021/08/12 02:01:12;;;;;;;9.60;8.23;;;17.60;99.90;;;;;;4919112;29;20859;-71
2021/08/12 02:03:40;;;;;;;9.23;8.17;;;17.60;99.90;;;;;;4918739;29;20445;-71
2021/08/12 02:06:07;;;;;;;8.60;7.70;;;17.60;99.90;;;;;;4918686;29;20458;-71
2021/08/12 02:08:32;;;;;;;9.13;8.23;;;17.60;99.90;;;;;;4918972;29;20951;-71
2021/08/12 02:10:58;;;;;;;8.20;7.50;;;17.60;99.90;;;;;;4919017;29;20407;-71
2021/08/12 02:13:25;;;;;;;8.40;7.60;;;17.60;99.90;;;;;;4918333;29;20812;-70
2021/08/12 02:15:51;;;;;;;8.60;7.73;;;17.60;99.90;;;;;;4918427;29;20266;-70
2021/08/12 02:18:18;;;;;;;9.60;8.20;;;17.60;99.90;;;;;;4919687;29;20438;-71
2021/08/12 02:20:50;;;;;;;8.97;8.07;;;17.60;99.90;;;;;;4918755;29;20439;-70
2021/08/12 02:23:23;;;;;;;9.20;8.30;;;17.60;99.90;;;;;;4917638;29;20419;-71
2021/08/12 02:25:59;;;;;;;9.33;8.43;;;17.60;99.90;;;;;;4918785;29;20170;-71
2021/08/12 02:28:27;;;;;;;8.20;7.40;;;17.60;99.90;;;;;;4919787;29;20422;-70
2021/08/12 02:30:55;;;;;;;8.67;7.87;;;17.60;99.90;;;;;;4918062;29;20467;-71
2021/08/12 02:33:25;;;;;;;9.83;8.23;;;17.50;99.90;;;;;;4918543;29;20549;-71
2021/08/12 02:35:51;;;;;;;10.33;8.60;;;17.50;99.90;;;;;;4918618;29;20411;-71
2021/08/12 02:38:19;;;;;;;8.87;7.60;;;17.50;99.90;;;;;;4919707;29;20764;-71
2021/08/12 02:40:45;;;;;;;7.87;7.07;;;17.50;99.90;;;;;;4918243;29;20945;-71
2021/08/12 02:43:12;;;;;;;10.07;8.47;;;17.50;99.90;;;;;;4920225;29;20453;-71
2021/08/12 02:45:38;;;;;;;10.00;8.30;;;17.40;99.90;;;;;;4936641;29;20446;-70
2021/08/12 02:48:07;;;;;;;9.47;8.60;;;17.40;99.90;;;;;;4937307;29;20904;-71
2021/08/12 02:50:37;;;;;;;9.57;8.47;;;17.20;99.90;;;;;;4923316;29;20431;-71
2021/08/12 02:53:04;;;;;;;9.20;8.40;;;17.10;99.90;;;;;;4917553;29;20462;-71
2021/08/12 02:55:30;;;;;;;13.40;8.30;;;17.10;99.90;;;;;;4917408;29;20442;-71
2021/08/12 02:57:56;;;;;;;11.30;8.50;;;17.00;99.90;;;;;;4917628;29;20426;-71
2021/08/12 03:00:22;;;;;;;10.00;7.77;;;17.00;99.90;;;;;;4919386;29;20758;-71
2021/08/12 03:02:48;;;;;;;10.67;9.67;;;17.10;99.90;;;;;;4917721;29;20703;-71
2021/08/12 03:05:14;;;;;;;10.10;9.20;;;17.10;99.90;;;;;;4917229;29;20182;-70
2021/08/12 03:07:43;;;;;;;9.20;8.30;;;17.10;99.90;;;;;;4917745;29;20463;-70
2021/08/12 03:10:11;;;;;;;10.20;9.10;;;17.10;99.90;;;;;;4918676;29;20411;-71
2021/08/12 03:12:37;;;;;;;9.60;8.70;;;17.10;99.90;;;;;;4917619;29;20590;-71
2021/08/12 03:15:04;;;;;;;9.07;8.17;;;17.10;99.90;;;;;;4917305;29;20498;-71
2021/08/12 03:17:29;;;;;;;9.50;8.57;;;17.10;99.90;;;;;;4917398;29;20418;-70
2021/08/12 03:19:55;;;;;;;9.20;7.70;;;17.20;99.90;;;;;;4917795;29;20415;-70
2021/08/12 03:22:24;;;;;;;9.70;8.70;;;17.20;99.90;;;;;;4931143;29;20193;-71
2021/08/12 03:24:51;;;;;;;9.60;8.70;;;17.10;99.90;;;;;;4937828;29;20194;-71
2021/08/12 03:27:17;;;;;;;10.97;9.57;;;17.00;99.90;;;;;;4939055;29;20497;-71
2021/08/12 03:29:44;;;;;;;10.10;9.07;;;16.90;99.90;;;;;;4936539;29;20497;-71
2021/08/12 03:32:10;;;;;;;9.67;8.67;;;16.90;99.90;;;;;;4934990;29;20565;-71
2021/08/12 03:34:36;;;;;;;10.00;9.10;;;16.80;99.90;;;;;;4938524;29;20516;-71
2021/08/12 03:37:02;;;;;;;10.07;8.67;;;16.80;99.90;;;;;;4942187;29;20194;-70
2021/08/12 03:39:28;;;;;;;9.43;8.53;;;16.80;99.90;;;;;;4942565;29;20429;-71
2021/08/12 03:41:54;;;;;;;11.90;9.30;;;16.90;99.90;;;;;;4940612;29;20436;-70
2021/08/12 03:44:20;;;;;;;9.70;8.70;;;17.00;99.90;;;;;;4934476;29;20985;-70
2021/08/12 03:46:45;;;;;;;9.00;8.20;;;17.00;99.90;;;;;;4922361;29;20214;-70
2021/08/12 03:49:11;;;;;;;10.63;9.53;;;17.00;99.90;;;;;;4921500;29;20182;-71
2021/08/12 03:51:36;;;;;;;9.37;8.47;;;17.10;99.90;;;;;;4902031;29;20315;-71
2021/08/12 03:54:02;;;;;;;9.77;8.93;;;17.10;99.90;;;;;;4918945;29;20211;-71
2021/08/12 03:56:28;;;;;;;9.87;8.70;;;17.10;99.90;;;;;;4917492;29;20194;-70
2021/08/12 03:58:53;;;;;;;9.43;8.53;;;17.10;99.90;;;;;;4918299;29;20174;-70
2021/08/12 04:01:19;;;;;;;9.70;8.70;;;17.10;99.90;;;;;;4923350;29;20190;-71
2021/08/12 04:03:45;;;;;;;11.07;9.90;;;17.10;99.90;;;;;;4929663;29;20198;-71
2021/08/12 04:06:11;;;;;;;9.57;8.67;;;17.10;99.90;;;;;;4929563;29;20210;-71
2021/08/12 04:08:37;;;;;;;9.50;8.70;;;17.10;99.90;;;;;;4930050;29;20182;-70
2021/08/12 04:11:02;;;;;;;9.80;8.70;;;17.10;99.90;;;;;;4934879;29;20830;-71
2021/08/12 04:13:28;;;;;;;11.37;8.87;;;17.10;99.90;;;;;;4934592;29;20351;-70
2021/08/12 04:15:54;;;;;;;9.77;8.87;;;17.00;99.90;;;;;;4935764;29;20175;-71
2021/08/12 04:18:20;;;;;;;11.70;8.77;;;17.00;99.90;;;;;;4910801;29;20191;-72
2021/08/12 04:20:46;;;;;;;10.13;9.03;;;16.90;99.90;;;;;;4920026;29;20437;-71
2021/08/12 04:23:11;;;;;;;10.60;8.43;;;16.90;99.90;;;;;;4930067;29;20269;-72
2021/08/12 04:25:37;;;;;;;11.37;9.50;;;16.90;99.90;;;;;;4935221;29;20235;-71
2021/08/12 04:28:03;;;;;;;13.17;10.43;;;16.70;99.90;;;;;;4950459;29;20185;-72
2021/08/12 04:30:29;;;;;;;11.47;9.40;;;16.60;99.90;;;;;;4951039;28;20197;-71
2021/08/12 04:32:54;;;;;;;11.37;10.00;;;16.50;99.90;;;;;;4937972;29;20473;-71
2021/08/12 04:35:20;;;;;;;11.23;9.70;;;16.40;99.90;;;;;;4934962;29;20198;-71
2021/08/12 04:37:46;;;;;;;20.90;9.13;;;16.40;99.90;;;;;;4935106;29;20543;-72
2021/08/12 04:40:14;;;;;;;11.13;9.90;;;16.40;99.90;;;;;;4934842;29;20492;-71
2021/08/12 04:42:41;;;;;;;11.37;9.27;;;16.50;99.90;;;;;;4920472;29;20569;-70
2021/08/12 04:45:07;;;;;;;10.10;8.80;;;16.60;99.90;;;;;;4928151;29;20421;-71
2021/08/12 04:47:33;;;;;;;10.83;9.03;;;16.80;99.90;;;;;;4958633;29;20405;-70
2021/08/12 04:49:58;;;;;;;10.10;9.07;;;16.80;99.90;;;;;;4958634;29;20420;-71
2021/08/12 04:52:24;;;;;;;9.60;8.70;;;16.90;99.90;;;;;;4958184;28;20639;-70
2021/08/12 04:54:50;;;;;;;10.73;9.27;;;16.90;99.90;;;;;;4958399;29;20464;-72
2021/08/12 04:57:15;;;;;;;10.00;9.10;;;17.00;99.90;;;;;;4957947;29;20174;-71
2021/08/12 04:59:41;;;;;;;10.53;9.30;;;17.00;99.90;;;;;;4958962;29;20166;-70
2021/08/12 05:02:07;;;;;;;10.57;9.47;;;17.00;99.90;;;;;;4958320;29;20174;-70
2021/08/12 05:04:32;;;;;;;10.70;8.80;;;17.10;99.90;;;;;;4957722;29;20205;-71
2021/08/12 05:06:58;;;;;;;9.07;8.17;;;17.10;99.90;;;;;;4958196;29;20564;-70
2021/08/12 05:09:23;;;;;;;9.70;8.80;;;17.10;99.90;;;;;;4958598;29;20166;-70
2021/08/12 05:11:49;;;;;;;12.40;9.67;;;17.10;99.90;;;;;;4958326;29;20588;-70
2021/08/12 05:14:14;;;;;;;10.90;9.80;;;17.10;99.90;;;;;;4957326;28;20486;-71
2021/08/12 05:16:40;;;;;;;10.50;9.50;;;17.20;99.90;;;;;;4959022;29;20574;-70
2021/08/12 05:19:05;;;;;;;10.70;9.53;;;17.20;99.90;;;;;;4957902;29;20535;-70
2021/08/12 05:21:31;;;;;;;10.73;8.70;;;17.20;99.90;;;;;;4958158;29;20333;-70
2021/08/12 05:23:57;;;;;;;10.47;9.47;;;17.20;99.90;;;;;;4958526;28;20550;-70
2021/08/12 05:26:23;;;;;;;10.90;9.80;;;17.20;99.90;;;;;;4958049;29;20303;-71
2021/08/12 05:28:48;;;;;;;9.37;8.27;;;17.30;99.90;;;;;;4957899;29;20274;-70
2021/08/12 05:31:14;;;;;;;9.93;8.93;;;17.30;99.90;;;;;;4957779;29;20496;-70
2021/08/12 05:33:39;;;;;;;12.57;9.70;;;17.30;99.90;;;;;;4957419;28;20554;-70
2021/08/12 05:36:05;;;;;;;12.33;10.40;;;17.30;99.90;;;;;;4957567;29;20174;-71
2021/08/12 05:38:31;;;;;;;11.17;10.07;;;17.30;99.90;;;;;;4958189;29;20169;-70
2021/08/12 05:40:57;;;;;;;11.33;9.83;;;17.20;99.90;;;;;;4958553;28;20420;-70
2021/08/12 05:43:23;;;;;;;10.77;9.70;;;17.20;99.90;;;;;;4957939;28;20829;-71
2021/08/12 05:45:49;;;;;;;12.13;10.40;;;17.10;99.90;;;;;;4957404;29;20193;-71
2021/08/12 05:48:15;;;;;;;12.20;11.10;;;17.10;99.90;;;;;;4957694;29;20419;-70
2021/08/12 05:50:44;;;;;;;9.93;9.13;;;17.10;99.90;;;;;;4958149;29;20205;-71
2021/08/12 05:53:15;;;;;;;12.57;11.10;;;17.20;99.90;;;;;;4958198;28;20205;-70
2021/08/12 05:55:40;;;;;;;13.43;9.87;;;17.30;99.90;;;;;;4941344;29;20468;-70
2021/08/12 05:58:06;;;;;;;11.67;10.47;;;17.20;99.90;;;;;;4961445;29;20477;-70
2021/08/12 06:00:31;;;;;;;12.10;10.90;;;17.20;99.90;;;;;;4960196;29;20304;-71
2021/08/12 06:03:05;;;;;;;11.80;10.70;;;17.30;99.90;;;;;;4960093;28;20196;-70
2021/08/12 06:05:30;;;;;;;12.03;10.40;;;17.20;99.90;;;;;;4956432;29;20193;-71
2021/08/12 06:07:56;;;;;;;11.03;9.97;;;17.30;99.90;;;;;;4934012;29;20536;-70
2021/08/12 06:10:22;;;;;;;10.93;9.90;;;17.30;99.90;;;;;;4936555;29;20542;-71
2021/08/12 06:12:47;;;;;;;13.50;10.37;;;17.40;99.90;;;;;;4925950;29;20706;-72
2021/08/12 06:15:13;;;;;;;10.97;9.87;;;17.40;99.90;;;;;;4941130;29;20500;-70
2021/08/12 06:17:38;;;;;;;12.70;11.40;;;17.50;99.90;;;;;;4938783;29;20620;-71
2021/08/12 06:20:04;;;;;;;11.23;10.13;;;17.60;99.90;;;;;;4948673;29;20176;-70
2021/08/12 06:22:30;;;;;;;17.30;10.37;;;17.60;99.90;;;;;;4935352;29;20214;-70
2021/08/12 06:24:59;;;;;;;11.73;10.53;;;17.70;99.90;;;;;;4950243;29;20786;-71
2021/08/12 06:27:24;;;;;;;11.53;10.00;;;17.80;99.90;;;;;;4938997;29;20345;-70
2021/08/12 06:29:50;;;;;;;12.60;11.30;;;17.80;99.90;;;;;;4937307;29;20439;-71
2021/08/12 06:32:15;;;;;;;11.90;10.80;;;17.90;99.90;;;;;;4938155;29;20190;-71
2021/08/12 06:34:41;;;;;;;12.80;11.23;;;17.90;99.90;;;;;;4938757;29;20206;-69
2021/08/12 06:37:09;;;;;;;11.70;10.60;;;18.00;99.90;;;;;;4938675;29;20175;-71
2021/08/12 06:39:35;;;;;;;12.37;10.40;;;18.00;99.90;;;;;;4937831;29;20171;-70
2021/08/12 06:42:00;;;;;;;11.23;10.23;;;18.10;99.90;;;;;;4937608;29;20509;-71
2021/08/12 06:44:26;;;;;;;11.57;10.40;;;18.20;99.90;;;;;;4937359;29;20202;-71
2021/08/12 06:46:51;;;;;;;11.70;10.30;;;18.30;99.90;;;;;;4937538;29;20202;-71
2021/08/12 06:49:17;;;;;;;10.07;9.10;;;18.30;99.90;;;;;;4937072;29;20249;-70
2021/08/12 06:51:42;;;;;;;11.23;10.10;;;18.40;99.90;;;;;;4937852;29;20636;-70
2021/08/12 06:54:08;;;;;;;11.97;10.77;;;18.60;99.90;;;;;;4936595;29;20206;-71
2021/08/12 06:56:33;;;;;;;10.90;9.90;;;18.70;99.90;;;;;;4937339;29;20178;-71
2021/08/12 06:59:00;;;;;;;10.67;9.67;;;18.80;99.90;;;;;;4937371;29;20241;-71
2021/08/12 07:01:25;;;;;;;10.90;9.80;;;18.90;99.90;;;;;;4938049;29;20672;-71
2021/08/12 07:03:51;;;;;;;11.03;9.27;;;19.00;99.90;;;;;;4937122;29;20434;-71
2021/08/12 07:06:16;;;;;;;19.27;10.83;;;19.20;99.90;;;;;;4936432;29;20555;-71
2021/08/12 07:08:42;;;;;;;11.37;10.17;;;19.30;99.90;;;;;;4935989;29;20185;-71
2021/08/12 07:11:08;;;;;;;10.20;9.30;;;19.40;99.90;;;;;;4936750;29;20202;-71
2021/08/12 07:13:34;;;;;;;10.37;9.37;;;19.50;99.90;;;;;;4936997;29;20831;-71
2021/08/12 07:16:00;;;;;;;11.40;9.57;;;19.70;99.90;;;;;;4937593;29;20179;-71
2021/08/12 07:18:25;;;;;;;10.67;9.77;;;19.80;99.90;;;;;;4920554;29;20178;-70
2021/08/12 07:20:51;;;;;;;14.27;10.57;;;19.80;99.90;;;;;;4936761;29;20444;-70
2021/08/12 07:23:16;;;;;;;10.60;9.70;;;19.90;99.90;;;;;;4937179;29;20541;-71
2021/08/12 07:25:42;;;;;;;19.20;10.33;;;20.00;99.90;;;;;;4936646;29;20700;-71
2021/08/12 07:28:11;;;;;;;18.03;10.23;;;20.10;99.90;;;;;;4935354;29;20185;-70
2021/08/12 07:30:36;;;;;;;11.25;9.80;;;20.10;99.90;;;;;;4936254;29;20433;-70
2021/08/12 07:33:02;;;;;;;9.90;8.90;;;20.20;99.90;;;;;;4936706;29;20695;-71
2021/08/12 07:35:28;;;;;;;10.17;9.17;;;20.30;99.90;;;;;;4936261;29;20257;-70
2021/08/12 07:37:53;;;;;;;9.23;8.33;;;20.30;99.90;;;;;;4937224;29;20194;-71
2021/08/12 07:40:19;;;;;;;9.20;8.30;;;20.40;99.90;;;;;;4936559;29;20177;-71
2021/08/12 07:42:45;;;;;;;11.20;9.03;;;20.50;99.90;;;;;;4936142;29;20194;-71
2021/08/12 07:45:10;;;;;;;10.17;9.17;;;20.50;99.90;;;;;;4936252;29;20659;-70
2021/08/12 07:47:36;;;;;;;13.53;11.73;;;20.60;99.90;;;;;;4936408;29;20178;-71
2021/08/12 07:50:08;;;;;;;10.77;9.63;;;20.60;99.90;;;;;;4936182;29;20655;-71
2021/08/12 07:52:36;;;;;;;14.17;9.90;;;20.70;99.90;;;;;;4918809;29;20812;-71
2021/08/12 07:55:02;;;;;;;9.83;8.20;;;20.90;99.90;;;;;;4936558;29;20406;-71
2021/08/12 07:57:28;;;;;;;14.70;9.67;;;21.00;99.90;;;;;;4936286;29;20428;-71
2021/08/12 07:59:53;;;;;;;10.57;9.50;;;21.20;99.90;;;;;;4937001;29;20173;-70
2021/08/12 08:02:19;;;;;;;10.60;9.50;;;21.30;99.90;;;;;;4936281;29;20418;-71
2021/08/12 08:04:46;;;;;;;11.67;9.23;;;21.40;99.90;;;;;;4937665;29;20257;-71
2021/08/12 08:07:12;;;;;;;12.55;10.90;;;21.50;99.90;;;;;;4939819;29;20552;-70
2021/08/12 08:09:38;;;;;;;14.40;10.30;;;21.60;99.90;;;;;;4941052;29;20174;-71
2021/08/12 08:12:04;;;;;;;9.53;8.53;;;21.60;99.90;;;;;;4941502;29;20666;-72
2021/08/12 08:14:29;;;;;;;9.63;8.37;;;21.70;99.90;;;;;;4935169;29;20210;-70
2021/08/12 08:16:55;;;;;;;10.70;8.70;;;21.80;99.90;;;;;;4923101;29;20430;-71
2021/08/12 08:19:20;;;;;;;9.37;8.17;;;21.80;99.90;;;;;;4922133;29;20656;-71
2021/08/12 08:21:46;;;;;;;8.13;7.40;;;21.70;99.90;;;;;;4922149;29;20195;-71
2021/08/12 08:24:11;;;;;;;10.00;9.00;;;21.70;99.90;;;;;;4923461;29;20206;-72
2021/08/12 08:26:37;;;;;;;10.13;9.13;;;21.80;99.90;;;;;;4926290;29;20189;-70
2021/08/12 08:29:02;;;;;;;10.57;9.57;;;21.90;99.90;;;;;;4940635;29;20186;-71
2021/08/12 08:31:28;;;;;;;14.37;10.33;;;22.00;99.90;;;;;;4940396;29;20187;-71
2021/08/12 08:33:54;;;;;;;14.13;11.07;;;22.10;99.90;;;;;;4937862;29;20238;-71
2021/08/12 08:36:20;;;;;;;13.07;11.67;;;22.10;99.90;;;;;;4939844;29;20181;-71
2021/08/12 08:38:46;;;;;;;12.87;11.57;;;22.20;99.90;;;;;;4940355;29;20186;-72
2021/08/12 08:41:12;;;;;;;11.40;10.30;;;22.20;99.90;;;;;;4939565;29;20430;-71
2021/08/12 08:43:41;;;;;;;12.27;10.20;;;22.20;99.90;;;;;;4939606;29;20272;-71
2021/08/12 08:46:07;;;;;;;13.15;11.80;;;22.20;99.90;;;;;;4938473;29;20414;-71
2021/08/12 08:48:34;;;;;;;15.83;13.20;;;22.40;99.90;;;;;;4939388;29;20190;-72
2021/08/12 08:51:01;;;;;;;15.03;13.40;;;22.50;99.90;;;;;;4939102;29;20428;-70
2021/08/12 08:53:28;;;;;;;12.00;10.70;;;22.60;99.90;;;;;;4938997;29;20472;-70
2021/08/12 08:55:53;;;;;;;12.57;11.27;;;22.60;99.90;;;;;;4939073;29;20557;-71
2021/08/12 08:58:22;;;;;;;15.03;11.90;;;22.70;99.90;;;;;;4939256;29;20493;-71
2021/08/12 09:00:48;;;;;;;13.27;11.37;;;22.70;99.90;;;;;;4922729;29;20178;-71
2021/08/12 09:03:14;;;;;;;12.67;11.37;;;22.60;99.90;;;;;;4938845;29;20446;-71
2021/08/12 09:05:39;;;;;;;14.03;11.80;;;22.70;99.90;;;;;;4938834;29;20449;-69
2021/08/12 09:08:05;;;;;;;12.97;11.67;;;22.70;99.90;;;;;;4922442;29;20182;-70
2021/08/12 09:10:31;;;;;;;11.97;10.73;;;22.60;99.90;;;;;;4939047;29;20189;-71
2021/08/12 09:12:56;;;;;;;13.57;12.17;;;22.60;99.90;;;;;;4938071;29;20650;-71
2021/08/12 09:15:23;;;;;;;13.40;11.37;;;22.60;99.90;;;;;;4938863;29;20190;-70
2021/08/12 09:17:57;;;;;;;12.77;11.47;;;22.60;99.90;;;;;;4938691;29;20242;-70
2021/08/12 09:20:26;;;;;;;13.27;11.88;;;22.60;99.90;;;;;;4937719;29;20775;-71
2021/08/12 09:22:54;;;;;;;13.10;11.80;;;22.70;99.90;;;;;;4938670;29;20285;-71
2021/08/12 09:25:36;;;;;;;12.13;10.50;;;22.60;99.90;;;;;;4938720;29;20501;-71
2021/08/12 09:28:12;;;;;;;13.30;10.17;;;22.70;99.90;;;;;;4938479;29;20494;-71
2021/08/12 09:30:38;;;;;;;10.90;9.60;;;22.90;99.90;;;;;;4938553;29;20773;-71
2021/08/12 09:33:04;;;;;;;11.83;9.67;;;23.00;99.90;;;;;;4938416;29;20990;-71
2021/08/12 09:35:29;;;;;;;12.73;11.40;;;23.00;99.90;;;;;;4938678;29;20433;-71
2021/08/12 09:38:08;;;;;;;12.53;11.27;;;22.90;99.90;;;;;;4938683;29;20182;-71
2021/08/12 09:40:34;;;;;;;11.63;10.10;;;23.00;99.90;;;;;;4921315;29;20555;-72
2021/08/12 09:43:04;;;;;;;11.87;10.67;;;23.20;99.90;;;;;;4937939;29;20932;-71
2021/08/12 09:45:32;;;;;;;11.50;10.30;;;23.10;99.90;;;;;;4941814;29;20432;-71
2021/08/12 09:48:18;;;;;;;11.23;8.63;;;23.20;99.90;;;;;;4949747;29;20950;-71
2021/08/12 09:51:05;;;;;;;10.47;9.47;;;23.40;99.90;;;;;;4939286;29;20433;-71
2021/08/12 09:53:32;;;;;;;11.03;9.60;;;23.50;99.90;;;;;;4938683;29;20473;-71
2021/08/12 09:56:07;;;;;;;10.00;8.13;;;23.40;99.90;;;;;;4934772;29;20452;-71
2021/08/12 09:58:35;;;;;;;10.97;9.23;;;23.60;99.90;;;;;;4931428;29;20485;-71
2021/08/12 10:01:19;;;;;;;10.50;9.43;;;23.60;99.90;;;;;;4937534;29;20789;-71
2021/08/12 10:03:45;;;;;;;12.33;9.97;;;23.70;99.90;;;;;;4936890;29;20477;-71
2021/08/12 10:06:27;;;;;;;9.40;8.50;;;23.80;99.90;;;;;;4938265;29;20418;-73
2021/08/12 10:08:53;;;;;;;10.10;8.43;;;23.90;99.90;;;;;;4936930;29;20422;-72
2021/08/12 10:11:28;;;;;;;9.43;8.60;;;24.00;99.90;;;;;;4936112;29;20541;-71
2021/08/12 10:13:59;;;;;;;11.80;10.20;;;24.10;99.90;;;;;;4937368;29;20213;-71
2021/08/12 10:16:27;;;;;;;9.20;8.30;;;24.00;99.90;;;;;;4919959;29;20431;-70
2021/08/12 10:18:55;;;;;;;9.98;8.85;;;24.10;99.90;;;;;;4937004;29;20421;-71
2021/08/12 10:21:20;;;;;;;9.00;8.13;;;24.20;99.90;;;;;;4936814;29;20309;-72
2021/08/12 10:23:49;;;;;;;9.27;8.20;;;24.20;99.90;;;;;;4919850;29;20516;-71
2021/08/12 10:26:18;;;;;;;8.87;7.83;;;24.30;99.90;;;;;;4937458;29;20223;-72
2021/08/12 10:28:48;;;;;;;7.73;7.10;;;24.30;99.90;;;;;;4918915;29;20514;-71
2021/08/12 10:31:22;;;;;;;6.90;6.30;;;24.20;99.90;;;;;;4920487;29;20419;-71
2021/08/12 10:33:51;;;;;;;8.40;7.60;;;24.20;99.90;;;;;;4937261;29;20580;-70
2021/08/12 10:36:18;;;;;;;7.90;7.20;;;24.20;99.90;;;;;;4938547;29;20440;-71
2021/08/12 10:38:44;;;;;;;7.10;6.50;;;24.20;99.90;;;;;;4937487;29;20438;-72
2021/08/12 10:41:10;;;;;;;7.10;6.40;;;24.10;99.90;;;;;;4937677;29;20906;-72
2021/08/12 10:43:36;;;;;;;7.20;6.60;;;24.10;99.80;;;;;;4936886;29;20466;-71
2021/08/12 10:46:03;;;;;;;7.53;6.77;;;24.10;99.80;;;;;;4935544;29;20962;-71
2021/08/12 10:48:32;;;;;;;6.73;5.80;;;24.10;99.10;;;;;;4937702;29;20220;-71
2021/08/12 10:51:10;;;;;;;11.10;6.30;;;24.10;99.50;;;;;;5091873;27;20571;-72
2021/08/12 10:53:36;;;;;;;7.80;7.10;;;24.20;99.90;;;;;;5091107;28;20765;-71
2021/08/12 10:56:07;;;;;;;7.40;6.70;;;24.20;99.70;;;;;;5091436;28;20402;-72
2021/08/12 10:58:43;;;;;;;7.07;6.37;;;24.10;99.20;;;;;;5090794;28;20422;-71
2021/08/12 11:01:28;;;;;;;6.70;6.00;;;24.20;98.70;;;;;;5092723;28;20740;-71
2021/08/12 11:03:58;;;;;;;7.33;6.33;;;24.10;97.60;;;;;;5072836;28;20419;-72
2021/08/12 11:06:44;;;;;;;9.90;6.13;;;24.20;97.90;;;;;;5090854;28;20445;-72
2021/08/12 11:09:11;;;;;;;6.37;5.77;;;24.40;97.70;;;;;;5090552;28;20493;-71
2021/08/12 11:11:36;;;;;;;6.40;5.80;;;24.40;97.80;;;;;;5090806;28;20763;-71
2021/08/12 11:14:10;;;;;;;9.17;6.30;;;24.50;97.80;;;;;;5089288;28;20613;-71
2021/08/12 11:16:41;;;;;;;6.60;5.90;;;24.70;97.70;;;;;;5088804;28;20507;-72
2021/08/12 11:19:25;;;;;;;6.90;6.20;;;24.70;97.70;;;;;;5087671;28;20408;-73
2021/08/12 11:21:51;;;;;;;5.53;5.03;;;24.90;97.10;;;;;;5088702;28;20189;-72
2021/08/12 11:24:22;;;;;;;4.63;4.20;;;25.10;96.20;;;;;;5088234;28;20450;-71
2021/08/12 11:26:48;;;;;;;4.60;4.17;;;25.20;94.60;;;;;;5089981;28;20407;-71
2021/08/12 11:29:23;;;;;;;5.63;4.90;;;25.30;91.90;;;;;;5090221;28;20445;-72
2021/08/12 11:31:48;;;;;;;7.53;5.83;;;25.30;92.10;;;;;;5090725;28;20544;-71
2021/08/12 11:34:15;;;;;;;9.20;5.53;;;25.30;92.70;;;;;;5091388;28;20423;-72
2021/08/12 11:37:13;;;;;;;6.60;4.97;;;25.30;93.20;;;;;;5091606;28;20192;-72
2021/08/12 11:40:01;;;;;;;7.40;5.07;;;25.30;92.30;;;;;;5090618;28;20391;-71
2021/08/12 11:42:37;;;;;;;5.30;4.80;;;25.50;92.80;;;;;;5074088;28;20419;-72
2021/08/12 11:45:21;;;;;;;5.30;4.80;;;25.50;90.80;;;;;;5093466;28;20733;-72
2021/08/12 11:47:55;;;;;;;8.30;5.30;;;25.50;91.40;;;;;;5073416;28;20903;-71
2021/08/12 11:50:25;;;;;;;8.63;5.77;;;25.50;91.90;;;;;;5090637;28;20536;-71
2021/08/12 11:52:51;;;;;;;5.60;5.07;;;25.40;92.70;;;;;;5090729;28;20915;-71
2021/08/12 11:55:21;;;;;;;8.80;6.00;;;25.50;93.00;;;;;;5090542;28;20399;-72
2021/08/12 11:57:49;;;;;;;6.37;5.70;;;25.50;92.50;;;;;;5089815;28;20177;-71
2021/08/12 12:00:16;;;;;;;7.00;6.00;;;25.50;92.80;;;;;;5089314;28;20443;-71
2021/08/12 12:02:48;;;;;;;7.40;5.17;;;25.40;93.20;;;;;;5075641;28;20466;-71
2021/08/12 12:05:14;;;;;;;7.63;5.57;;;25.40;93.20;;;;;;5076325;28;20502;-71
2021/08/12 12:07:46;;;;;;;4.93;4.50;;;25.50;92.70;;;;;;5076272;28;20541;-71
2021/08/12 12:10:25;;;;;;;6.40;4.43;;;25.40;90.60;;;;;;5076400;28;20284;-71
2021/08/12 12:12:50;;;;;;;5.03;4.30;;;25.30;90.00;;;;;;5076733;28;20416;-71
2021/08/12 12:15:30;;;;;;;5.23;4.73;;;25.20;90.60;;;;;;5057934;28;20420;-72
2021/08/12 12:17:55;;;;;;;4.80;4.40;;;25.20;90.60;;;;;;5076101;28;20644;-71
2021/08/12 12:20:23;;;;;;;4.17;3.77;;;25.30;89.70;;;;;;5075995;28;20443;-71
2021/08/12 12:23:13;;;;;;;4.45;4.05;;;25.20;86.80;;;;;;5075099;28;20460;-72
2021/08/12 12:25:42;;;;;;;5.00;4.43;;;25.30;87.20;;;;;;5075513;28;20170;-70
2021/08/12 12:28:10;;;;;;;4.90;4.43;;;25.30;88.20;;;;;;5075465;28;20420;-70
2021/08/12 12:30:36;;;;;;;6.63;4.50;;;25.30;88.20;;;;;;5075186;28;20538;-70
2021/08/12 12:33:06;;;;;;;8.40;4.83;;;25.30;87.50;;;;;;5075627;28;20838;-72
2021/08/12 12:35:36;;;;;;;6.43;4.90;;;25.50;87.60;;;;;;5075575;28;20166;-70
2021/08/12 12:38:02;;;;;;;5.37;4.70;;;25.40;85.10;;;;;;5076390;28;20407;-71
2021/08/12 12:40:32;;;;;;;6.60;5.40;;;25.40;88.10;;;;;;5075702;28;20473;-70
2021/08/12 12:42:59;;;;;;;9.40;5.87;;;25.50;90.20;;;;;;5075069;28;20431;-70
2021/08/12 12:45:25;;;;;;;6.47;5.87;;;25.50;90.50;;;;;;5075725;28;20408;-70